createdAt,value
2024-04-22T00:02:21.950Z,97486.14
2024-04-22T00:04:51.533Z,97485.61
2024-04-22T00:07:19.969Z,97484.88
2024-04-22T00:09:47.963Z,97486.97
2024-04-22T00:12:16.473Z,97488.77
2024-04-22T00:14:45.099Z,97490.47
2024-04-22T00:17:13.576Z,97489.42
2024-04-22T00:19:42.249Z,97489.73
2024-04-22T00:22:10.753Z,97490.11
2024-04-22T00:24:39.287Z,97487.47
2024-04-22T00:27:07.653Z,97489.27
2024-04-22T00:29:36.136Z,97490.32
2024-04-22T00:32:05.153Z,97491.48
2024-04-22T00:34:33.494Z,97487.84
2024-04-22T00:37:01.692Z,97489.09
2024-04-22T00:39:30.173Z,97485.37
2024-04-22T00:41:58.518Z,97489.05
2024-04-22T00:44:26.625Z,97489.17
2024-04-22T00:46:55.767Z,97486.61
2024-04-22T00:49:24.610Z,97489.44
2024-04-22T00:51:54.297Z,97487.70
2024-04-22T00:54:23.266Z,97486.48
2024-04-22T00:56:53.021Z,97487.55
2024-04-22T00:59:21.909Z,97489.48
2024-04-22T01:01:50.374Z,97491.73
2024-04-22T01:04:19.110Z,97495.86
2024-04-22T01:06:47.514Z,97498.67
2024-04-22T01:09:15.836Z,97504.08
2024-04-22T01:11:43.932Z,97503.81
2024-04-22T01:14:12.226Z,97504.73
2024-04-22T01:16:40.240Z,97502.71
2024-04-22T01:19:08.653Z,97501.92
2024-04-22T01:21:36.807Z,97501.81
2024-04-22T01:24:05.369Z,97502.95
2024-04-22T01:26:34.354Z,97504.05
2024-04-22T01:29:02.603Z,97511.58
2024-04-22T01:31:31.547Z,97512.14
2024-04-22T01:34:00.073Z,97511.38
2024-04-22T01:36:28.407Z,97511.65
2024-04-22T01:38:56.624Z,97512.58
2024-04-22T01:41:24.953Z,97510.88
2024-04-22T01:43:53.228Z,97510.02
2024-04-22T01:46:21.282Z,97510.35
2024-04-22T01:48:49.742Z,97507.34
2024-04-22T01:51:17.864Z,97508.58
2024-04-22T01:53:46.197Z,97512.04
2024-04-22T01:56:14.262Z,97514.68
2024-04-22T01:58:42.537Z,97518.04
2024-04-22T02:01:10.754Z,97522.32
2024-04-22T02:03:39.285Z,97524.33
2024-04-22T02:06:07.930Z,97526.32
2024-04-22T02:08:36.284Z,97526.33
2024-04-22T02:11:04.636Z,97527.47
2024-04-22T02:13:33.078Z,97525.65
2024-04-22T02:16:01.356Z,97521.56
2024-04-22T02:18:29.705Z,97519.27
2024-04-22T02:20:58.034Z,97517.35
2024-04-22T02:23:26.840Z,97517.23
2024-04-22T02:25:55.117Z,97520.64
2024-04-22T02:28:23.526Z,97521.77
2024-04-22T02:30:52.020Z,97521.86
2024-04-22T02:33:20.401Z,97523.27
2024-04-22T02:35:49.364Z,97526.98
2024-04-22T02:38:18.453Z,97528.33
2024-04-22T02:40:46.751Z,97536.45
2024-04-22T02:43:15.200Z,97539.85
2024-04-22T02:45:44.130Z,97543.00
2024-04-22T02:48:12.372Z,97549.23
2024-04-22T02:50:40.749Z,97553.74
2024-04-22T02:53:08.783Z,97559.98
2024-04-22T02:55:37.062Z,97562.77
2024-04-22T02:58:06.257Z,97564.15
2024-04-22T03:00:34.748Z,97571.07
2024-04-22T03:03:03.266Z,97572.88
2024-04-22T03:05:31.875Z,97577.01
2024-04-22T03:08:00.563Z,97578.81
2024-04-22T03:10:28.962Z,97579.42
2024-04-22T03:12:57.371Z,97578.66
2024-04-22T03:15:25.526Z,97582.77
2024-04-22T03:17:54.444Z,97586.91
2024-04-22T03:20:24.546Z,97586.44
2024-04-22T03:22:53.085Z,97587.70
2024-04-22T03:25:21.654Z,97586.12
2024-04-22T03:27:50.157Z,97585.77
2024-04-22T03:30:18.379Z,97590.14
2024-04-22T03:32:46.910Z,97593.89
2024-04-22T03:35:15.478Z,97594.45
2024-04-22T03:37:43.991Z,97597.43
2024-04-22T03:40:12.589Z,97599.75
2024-04-22T03:42:40.894Z,97600.17
2024-04-22T03:45:08.963Z,97604.56
2024-04-22T03:47:56.201Z,97607.41
2024-04-22T03:50:24.328Z,97613.80
2024-04-22T03:52:53.571Z,97612.92
2024-04-22T03:55:21.860Z,97613.80
2024-04-22T03:57:51.255Z,97615.80
2024-04-22T04:00:19.939Z,97620.43
2024-04-22T04:02:48.252Z,97621.64
2024-04-22T04:05:18.275Z,97619.20
2024-04-22T04:07:48.261Z,97621.16
2024-04-22T04:10:16.930Z,97623.48
2024-04-22T04:12:45.251Z,97626.67
2024-04-22T04:15:13.840Z,97629.61
2024-04-22T04:17:42.580Z,97631.70
2024-04-22T04:20:11.401Z,97632.46
2024-04-22T04:22:39.499Z,97629.34
2024-04-22T04:25:08.076Z,97631.87
2024-04-22T04:27:36.309Z,97634.97
2024-04-22T04:30:05.452Z,97642.02
2024-04-22T04:32:34.550Z,97645.06
2024-04-22T04:35:06.695Z,97652.92
2024-04-22T04:37:36.521Z,97657.04
2024-04-22T04:40:05.141Z,97664.04
2024-04-22T04:42:33.312Z,97666.93
2024-04-22T04:45:01.832Z,97669.25
2024-04-22T04:47:30.024Z,97672.70
2024-04-22T04:49:59.240Z,97676.65
2024-04-22T04:52:28.210Z,97679.48
2024-04-22T04:54:56.909Z,97677.75
2024-04-22T04:57:25.045Z,97678.57
2024-04-22T04:59:53.630Z,97686.52
2024-04-22T05:02:21.586Z,97690.48
2024-04-22T05:04:52.222Z,97688.91
2024-04-22T05:07:20.709Z,97695.70
2024-04-22T05:09:56.736Z,97693.14
2024-04-22T05:12:31.842Z,97688.92
2024-04-22T05:15:03.716Z,97694.98
2024-04-22T05:17:32.276Z,97698.71
2024-04-22T05:20:00.676Z,97703.60
2024-04-22T05:22:34.282Z,97709.73
2024-04-22T05:25:04.521Z,97711.55
2024-04-22T05:27:34.422Z,97715.58
2024-04-22T05:30:04.302Z,97723.15
2024-04-22T05:32:34.753Z,97729.58
2024-04-22T05:35:36.616Z,97730.64
2024-04-22T05:38:05.130Z,97730.93
2024-04-22T05:40:34.052Z,97730.89
2024-04-22T05:43:02.175Z,97734.08
2024-04-22T05:45:31.340Z,97732.89
2024-04-22T05:48:00.818Z,97737.48
2024-04-22T05:50:29.589Z,97742.68
2024-04-22T05:52:58.506Z,97745.11
2024-04-22T05:55:36.832Z,97747.59
2024-04-22T05:58:24.982Z,97750.57
2024-04-22T06:00:59.688Z,97761.12
2024-04-22T06:03:29.301Z,97762.09
2024-04-22T06:05:57.654Z,97764.81
2024-04-22T06:08:26.308Z,97767.90
2024-04-22T06:10:56.190Z,97771.73
2024-04-22T06:13:27.252Z,97778.70
2024-04-22T06:15:58.715Z,97777.83
2024-04-22T06:18:27.669Z,97790.95
2024-04-22T06:20:57.526Z,97792.48
2024-04-22T06:23:37.791Z,97796.11
2024-04-22T06:26:09.822Z,97799.89
2024-04-22T06:28:38.802Z,97803.31
2024-04-22T06:31:11.344Z,97809.70
2024-04-22T06:33:43.996Z,97814.30
2024-04-22T06:36:15.318Z,97823.46
2024-04-22T06:38:50.390Z,97824.10
2024-04-22T06:41:22.779Z,97830.14
2024-04-22T06:43:57.831Z,97835.29
2024-04-22T06:46:30.157Z,97837.39
2024-04-22T06:49:12.557Z,97840.89
2024-04-22T06:51:44.692Z,97846.48
2024-04-22T06:54:22.193Z,97852.85
2024-04-22T06:56:51.167Z,97855.04
2024-04-22T06:59:21.110Z,97860.71
2024-04-22T07:01:56.944Z,97864.91
2024-04-22T07:04:30.751Z,97874.62
2024-04-22T07:07:00.090Z,97879.20
2024-04-22T07:09:31.219Z,97879.98
2024-04-22T07:12:00.498Z,97885.80
2024-04-22T07:14:30.688Z,97894.42
2024-04-22T07:16:59.455Z,97894.02
2024-04-22T07:19:30.182Z,97895.13
2024-04-22T07:22:02.906Z,97903.76
2024-04-22T07:24:31.914Z,97909.11
2024-04-22T07:27:10.983Z,97913.48
2024-04-22T07:29:54.095Z,97917.40
2024-04-22T07:32:24.585Z,97917.20
2024-04-22T07:34:54.205Z,97921.26
2024-04-22T07:37:31.858Z,97929.09
2024-04-22T07:40:15.705Z,97934.02
2024-04-22T07:42:48.048Z,97944.15
2024-04-22T07:45:23.596Z,97945.98
2024-04-22T07:47:55.522Z,97947.52
2024-04-22T07:50:24.700Z,97953.42
2024-04-22T07:52:54.419Z,97958.09
2024-04-22T07:55:26.817Z,97957.94
2024-04-22T07:58:02.014Z,97960.30
2024-04-22T08:00:34.951Z,97964.94
2024-04-22T08:03:07.681Z,97968.08
2024-04-22T08:05:37.342Z,97970.16
2024-04-22T08:08:16.317Z,97973.44
2024-04-22T08:10:53.881Z,97977.50
2024-04-22T08:13:24.822Z,97978.85
2024-04-22T08:15:55.264Z,97981.44
2024-04-22T08:18:24.180Z,97985.41
2024-04-22T08:21:00.440Z,97985.05
2024-04-22T08:32:32.419Z,97999.48
2024-04-22T08:35:12.381Z,97999.37
2024-04-22T08:37:48.565Z,97996.61
2024-04-22T08:40:26.564Z,97997.42
2024-04-22T08:43:01.893Z,98000.69
2024-04-22T08:45:31.636Z,98003.28
2024-04-22T08:48:00.631Z,98004.45
2024-04-22T08:50:31.632Z,98004.83
2024-04-22T08:53:04.636Z,98007.15
2024-04-22T08:55:33.649Z,98012.89
2024-04-22T08:58:05.327Z,98009.98
2024-04-22T09:00:34.649Z,98010.45
2024-04-22T09:03:05.589Z,98009.23
2024-04-22T09:05:37.448Z,98014.41
2024-04-22T09:08:08.458Z,98020.21
2024-04-22T09:11:11.832Z,98025.23
2024-04-22T09:13:30.194Z,98026.51
2024-04-22T09:15:59.621Z,98029.47
2024-04-22T09:18:29.654Z,98028.15
2024-04-22T09:21:07.636Z,98032.36
2024-04-22T09:23:40.362Z,98036.34
2024-04-22T09:26:09.610Z,98035.39
2024-04-22T09:28:39.616Z,98036.17
2024-04-22T09:31:10.126Z,98032.30
2024-04-22T09:33:38.754Z,98033.39
2024-04-22T09:36:07.609Z,98034.27
2024-04-22T09:38:46.137Z,98036.88
2024-04-22T09:41:21.039Z,98038.80
2024-04-22T09:43:57.093Z,98039.65
2024-04-22T09:46:32.664Z,98038.73
2024-04-22T09:49:03.523Z,98041.15
2024-04-22T09:51:35.713Z,98043.52
2024-04-22T09:54:05.114Z,98043.86
2024-04-22T09:56:37.122Z,98045.34
2024-04-22T09:59:07.961Z,98044.50
2024-04-22T10:01:37.032Z,98047.10
2024-04-22T10:04:06.165Z,98043.75
2024-04-22T10:06:34.732Z,98042.83
2024-04-22T10:09:03.458Z,98043.27
2024-04-22T10:11:33.774Z,98046.58
2024-04-22T10:14:15.182Z,98052.09
2024-04-22T10:17:05.730Z,98048.42
2024-04-22T10:19:37.882Z,98048.23
2024-04-22T10:22:09.606Z,98046.73
2024-04-22T10:24:39.960Z,98049.16
2024-04-22T10:27:12.724Z,98048.05
2024-04-22T10:29:43.783Z,98048.41
2024-04-22T10:32:12.184Z,98052.51
2024-04-22T10:34:44.826Z,98052.70
2024-04-22T10:37:14.558Z,98051.11
2024-04-22T10:39:46.728Z,98046.30
2024-04-22T10:42:19.208Z,98047.52
2024-04-22T10:44:48.318Z,98041.44
2024-04-22T10:47:16.945Z,98044.19
2024-04-22T10:49:47.739Z,98048.45
2024-04-22T10:52:16.223Z,98054.26
2024-04-22T10:54:46.183Z,98056.92
2024-04-22T10:57:15.437Z,98062.35
2024-04-22T10:59:43.910Z,98061.97
2024-04-22T11:02:12.502Z,98061.19
2024-04-22T11:04:42.246Z,98065.04
2024-04-22T11:07:10.786Z,98067.38
2024-04-22T11:09:39.577Z,98064.09
2024-04-22T11:12:08.388Z,98065.73
2024-04-22T11:14:37.064Z,98068.16
2024-04-22T11:17:05.652Z,98070.17
2024-04-22T11:19:34.003Z,98071.63
2024-04-22T11:22:03.296Z,98076.38
2024-04-22T11:24:31.862Z,98079.43
2024-04-22T11:27:00.358Z,98077.44
2024-04-22T11:29:29.416Z,98076.31
2024-04-22T11:31:58.998Z,98081.92
2024-04-22T11:34:27.668Z,98084.33
2024-04-22T11:37:00.409Z,98079.80
2024-04-22T11:39:32.036Z,98078.33
2024-04-22T11:42:01.368Z,98082.63
2024-04-22T11:44:29.729Z,98093.27
2024-04-22T11:46:58.851Z,98092.11
2024-04-22T11:49:27.246Z,98093.80
2024-04-22T11:51:55.566Z,98095.33
2024-04-22T11:54:23.924Z,98097.23
2024-04-22T11:56:52.974Z,98094.23
2024-04-22T11:59:22.072Z,98091.98
2024-04-22T12:01:50.879Z,98099.45
2024-04-22T12:04:19.291Z,98099.76
2024-04-22T12:06:48.393Z,98098.55
2024-04-22T12:09:16.697Z,98098.39
2024-04-22T12:11:45.549Z,98100.75
2024-04-22T12:14:14.694Z,98099.33
2024-04-22T12:16:43.345Z,98100.10
2024-04-22T12:19:12.406Z,98099.89
2024-04-22T12:21:40.872Z,98103.45
2024-04-22T12:24:09.485Z,98105.79
2024-04-22T12:26:37.819Z,98098.20
2024-04-22T12:29:06.747Z,98102.98
2024-04-22T12:31:36.199Z,98101.75
2024-04-22T12:34:12.269Z,98098.47
2024-04-22T12:36:42.502Z,98108.48
2024-04-22T12:39:10.619Z,98106.84
2024-04-22T12:41:39.866Z,98103.58
2024-04-22T12:44:08.139Z,98106.26
2024-04-22T12:46:56.801Z,98108.58
2024-04-22T12:49:44.338Z,98109.68
2024-04-22T12:52:15.038Z,98110.08
2024-04-22T12:54:43.915Z,98108.61
2024-04-22T12:57:12.475Z,98114.08
2024-04-22T12:59:41.370Z,98117.63
2024-04-22T13:02:13.810Z,98118.64
2024-04-22T13:04:42.439Z,98121.70
2024-04-22T13:07:10.880Z,98119.58
2024-04-22T13:09:39.462Z,98121.42
2024-04-22T13:12:08.215Z,98122.08
2024-04-22T13:14:36.297Z,98122.38
2024-04-22T13:17:05.073Z,98126.70
2024-04-22T13:19:33.611Z,98128.31
2024-04-22T13:22:01.613Z,98127.16
2024-04-22T13:24:29.582Z,98128.01
2024-04-22T13:26:57.573Z,98134.68
2024-04-22T13:29:26.021Z,98136.75
2024-04-22T13:31:55.402Z,98137.55
2024-04-22T13:34:23.642Z,98143.45
2024-04-22T13:36:52.193Z,98150.41
2024-04-22T13:39:20.828Z,98151.51
2024-04-22T13:41:49.630Z,98158.36
2024-04-22T13:44:19.372Z,98163.08
2024-04-22T13:46:48.021Z,98166.95
2024-04-22T13:49:16.631Z,98172.01
2024-04-22T13:51:46.435Z,98175.88
2024-04-22T13:54:14.718Z,98181.77
2024-04-22T13:56:42.899Z,98186.39
2024-04-22T13:59:11.516Z,98189.92
2024-04-22T14:01:40.318Z,98186.00
2024-04-22T14:04:09.008Z,98184.45
2024-04-22T14:06:37.848Z,98186.71
2024-04-22T14:09:07.548Z,98190.40
2024-04-22T14:11:37.566Z,98191.69
2024-04-22T14:14:06.110Z,98193.91
2024-04-22T14:16:34.632Z,98191.91
2024-04-22T14:19:03.080Z,98194.71
2024-04-22T14:21:31.199Z,98196.73
2024-04-22T14:23:59.833Z,98195.92
2024-04-22T14:26:28.018Z,98198.34
2024-04-22T14:28:56.331Z,98201.81
2024-04-22T14:31:24.531Z,98198.95
2024-04-22T14:33:54.286Z,98192.54
2024-04-22T14:36:24.634Z,98191.59
2024-04-22T14:38:53.197Z,98191.76
2024-04-22T14:41:21.781Z,98195.91
2024-04-22T14:43:50.534Z,98196.84
2024-04-22T14:46:20.924Z,98200.23
2024-04-22T14:48:49.149Z,98200.11
2024-04-22T14:51:17.800Z,98202.75
2024-04-22T14:53:46.465Z,98202.16
2024-04-22T14:56:14.681Z,98204.35
2024-04-22T14:58:43.068Z,98207.11
2024-04-22T15:01:11.526Z,98207.55
2024-04-22T15:03:40.114Z,98209.07
2024-04-22T15:06:08.643Z,98206.73
2024-04-22T15:08:37.242Z,98204.80
2024-04-22T15:11:07.858Z,98207.70
2024-04-22T15:13:36.568Z,98214.77
2024-04-22T15:16:05.256Z,98212.66
2024-04-22T15:18:34.475Z,98211.93
2024-04-22T15:21:02.886Z,98213.91
2024-04-22T15:23:31.076Z,98216.60
2024-04-22T15:25:59.369Z,98215.42
2024-04-22T15:28:27.776Z,98214.31
2024-04-22T15:30:56.045Z,98214.04
2024-04-22T15:33:24.121Z,98213.50
2024-04-22T15:35:52.370Z,98215.11
2024-04-22T15:38:20.335Z,98216.11
2024-04-22T15:40:49.128Z,98217.41
2024-04-22T15:43:17.616Z,98220.59
2024-04-22T15:45:45.660Z,98221.09
2024-04-22T15:48:21.206Z,98224.42
2024-04-22T15:50:53.640Z,98228.16
2024-04-22T15:53:21.896Z,98227.77
2024-04-22T15:55:58.620Z,98225.75
2024-04-22T15:58:27.437Z,98223.14
2024-04-22T16:00:55.938Z,98225.05
2024-04-22T16:03:24.118Z,98228.79
2024-04-22T16:05:52.774Z,98229.39
2024-04-22T16:08:20.872Z,98233.07
2024-04-22T16:10:49.566Z,98230.22
2024-04-22T16:13:18.162Z,98228.92
2024-04-22T16:15:47.238Z,98230.14
2024-04-22T16:18:15.677Z,98228.98
2024-04-22T16:20:49.733Z,98230.80
2024-04-22T16:23:21.843Z,98234.90
2024-04-22T16:25:50.140Z,98232.99
2024-04-22T16:28:18.576Z,98235.61
2024-04-22T16:30:47.301Z,98238.77
2024-04-22T16:33:15.924Z,98239.20
2024-04-22T16:35:44.216Z,98238.61
2024-04-22T16:38:12.330Z,98239.47
2024-04-22T16:40:40.859Z,98245.29
2024-04-22T16:43:09.242Z,98245.11
2024-04-22T16:45:37.582Z,98243.68
2024-04-22T16:48:06.592Z,98247.58
2024-04-22T16:50:36.278Z,98249.48
2024-04-22T16:53:05.229Z,98254.45
2024-04-22T16:55:33.750Z,98254.73
2024-04-22T16:58:02.185Z,98260.06
2024-04-22T17:00:31.244Z,98260.92
2024-04-22T17:02:59.484Z,98266.50
2024-04-22T17:05:28.018Z,98264.45
2024-04-22T17:07:56.371Z,98271.71
2024-04-22T17:10:25.515Z,98275.39
2024-04-22T17:12:56.591Z,98275.75
2024-04-22T17:15:25.540Z,98281.66
2024-04-22T17:17:54.207Z,98281.98
2024-04-22T17:20:22.553Z,98283.39
2024-04-22T17:22:52.549Z,98286.63
2024-04-22T17:25:20.838Z,98296.80
2024-04-22T17:27:49.399Z,98303.44
2024-04-22T17:30:17.528Z,98305.81
2024-04-22T17:32:46.045Z,98312.21
2024-04-22T17:35:14.730Z,98322.27
2024-04-22T17:37:43.402Z,98326.89
2024-04-22T17:40:12.067Z,98334.21
2024-04-22T17:42:40.568Z,98339.69
2024-04-22T17:45:09.887Z,98341.49
2024-04-22T17:47:38.626Z,98344.85
2024-04-22T17:50:06.983Z,98349.84
2024-04-22T17:52:35.665Z,98355.33
2024-04-22T17:55:04.437Z,98357.52
2024-04-22T17:57:32.546Z,98362.96
2024-04-22T18:00:00.809Z,98365.91
2024-04-22T18:02:29.370Z,98366.18
2024-04-22T18:04:57.613Z,98369.23
2024-04-22T18:07:26.924Z,98369.21
2024-04-22T18:09:55.361Z,98373.59
2024-04-22T18:12:24.082Z,98376.27
2024-04-22T18:14:52.437Z,98378.35
2024-04-22T18:17:20.546Z,98384.08
2024-04-22T18:19:48.799Z,98387.77
2024-04-22T18:22:21.005Z,98393.50
2024-04-22T18:24:50.162Z,98397.95
2024-04-22T18:27:18.427Z,98399.45
2024-04-22T18:29:46.452Z,98400.87
2024-04-22T18:32:14.631Z,98398.52
2024-04-22T18:34:43.028Z,98399.36
2024-04-22T18:37:11.674Z,98402.20
2024-04-22T18:39:40.226Z,98399.52
2024-04-22T18:42:08.491Z,98401.48
2024-04-22T18:44:36.421Z,98405.54
2024-04-22T18:47:05.007Z,98404.98
2024-04-22T18:49:33.414Z,98409.14
2024-04-22T18:52:01.295Z,98409.21
2024-04-22T18:54:32.648Z,98407.72
2024-04-22T18:57:03.637Z,98407.46
2024-04-22T18:59:31.823Z,98411.33
2024-04-22T19:02:04.022Z,98412.16
2024-04-22T19:04:33.271Z,98406.34
2024-04-22T19:07:01.788Z,98394.86
2024-04-22T19:09:29.981Z,98393.61
2024-04-22T19:11:58.501Z,98393.42
2024-04-22T19:14:26.529Z,98402.05
2024-04-22T19:16:54.795Z,98412.94
2024-04-22T19:19:25.068Z,98416.89
2024-04-22T19:21:53.723Z,98411.09
2024-04-22T19:24:22.102Z,98411.70
2024-04-22T19:26:50.377Z,98413.96
2024-04-22T19:29:18.432Z,98420.44
2024-04-22T19:31:47.356Z,98422.33
2024-04-22T19:34:16.055Z,98424.25
2024-04-22T19:36:44.365Z,98422.27
2024-04-22T19:39:15.397Z,98422.60
2024-04-22T19:41:45.182Z,98422.04
2024-04-22T19:44:14.271Z,98422.83
2024-04-22T19:46:42.658Z,98429.60
2024-04-22T19:49:11.093Z,98427.80
2024-04-22T19:51:39.298Z,98427.14
2024-04-22T19:54:07.238Z,98429.34
2024-04-22T19:56:35.703Z,98432.27
2024-04-22T19:59:04.014Z,98436.77
2024-04-22T20:01:32.288Z,98436.27
2024-04-22T20:04:02.547Z,98433.67
2024-04-22T20:06:31.135Z,98431.28
2024-04-22T20:08:59.422Z,98428.98
2024-04-22T20:11:28.377Z,98428.74
2024-04-22T20:13:56.472Z,98427.59
2024-04-22T20:16:45.235Z,98427.83
2024-04-22T20:19:18.452Z,98422.43
2024-04-22T20:21:46.870Z,98419.25
2024-04-22T20:24:18.896Z,98423.03
2024-04-22T20:26:47.351Z,98417.89
2024-04-22T20:29:15.886Z,98419.46
2024-04-22T20:31:44.771Z,98420.26
2024-04-22T20:34:13.158Z,98423.75
2024-04-22T20:36:41.242Z,98423.25
2024-04-22T20:39:09.367Z,98421.75
2024-04-22T20:41:37.726Z,98423.33
2024-04-22T20:44:06.485Z,98424.02
2024-04-22T20:46:35.135Z,98423.06
2024-04-22T20:49:03.306Z,98424.33
2024-04-22T20:51:34.262Z,98423.73
2024-04-22T20:54:02.452Z,98418.98
2024-04-22T20:56:30.505Z,98419.48
2024-04-22T20:58:58.873Z,98419.41
2024-04-22T21:01:27.235Z,98420.83
2024-04-22T21:03:55.409Z,98422.59
2024-04-22T21:06:23.492Z,98422.30
2024-04-22T21:08:52.093Z,98421.43
2024-04-22T21:11:20.030Z,98419.15
2024-04-22T21:14:03.535Z,98423.64
2024-04-22T21:16:31.733Z,98424.64
2024-04-22T21:19:07.601Z,98426.77
2024-04-22T21:21:43.020Z,98429.41
2024-04-22T21:24:11.220Z,98429.20
2024-04-22T21:26:39.648Z,98425.51
2024-04-22T21:29:07.698Z,98423.76
2024-04-22T21:31:35.916Z,98423.39
2024-04-22T21:34:08.697Z,98420.61
2024-04-22T21:36:37.975Z,98417.84
2024-04-22T21:39:06.185Z,98421.40
2024-04-22T21:41:34.436Z,98418.98
2024-04-22T21:44:02.555Z,98416.56
2024-04-22T21:46:30.964Z,98416.27
2024-04-22T21:48:59.492Z,98419.41
2024-04-22T21:51:27.759Z,98421.23
2024-04-22T21:53:55.808Z,98418.38
2024-04-22T21:56:23.669Z,98412.73
2024-04-22T21:59:29.633Z,98410.50
2024-04-22T22:02:35.173Z,98407.45
2024-04-22T22:05:41.151Z,98408.39
2024-04-22T22:08:10.618Z,98411.40
2024-04-22T22:10:40.004Z,98406.86
2024-04-22T22:13:08.382Z,98406.60
2024-04-22T22:15:36.948Z,98408.19
2024-04-22T22:18:06.037Z,98411.33
2024-04-22T22:20:34.591Z,98411.52
2024-04-22T22:23:03.093Z,98411.66
2024-04-22T22:25:31.728Z,98413.66
2024-04-22T22:28:00.521Z,98412.09
2024-04-22T22:30:28.698Z,98415.48
2024-04-22T22:32:57.637Z,98407.08
2024-04-22T22:35:26.285Z,98408.87
2024-04-22T22:37:54.535Z,98412.27
2024-04-22T22:40:22.719Z,98412.56
2024-04-22T22:42:50.960Z,98410.61
2024-04-22T22:45:19.180Z,98408.66
2024-04-22T22:47:47.576Z,98408.11
2024-04-22T22:50:15.875Z,98405.35
2024-04-22T22:52:44.212Z,98406.25
2024-04-22T22:55:12.427Z,98404.90
2024-04-22T22:57:41.117Z,98403.50
2024-04-22T23:00:09.869Z,98401.89
2024-04-22T23:02:38.283Z,98406.42
2024-04-22T23:05:06.658Z,98401.10
2024-04-22T23:07:34.858Z,98405.66
2024-04-22T23:10:03.292Z,98405.21
2024-04-22T23:12:31.472Z,98406.98
2024-04-22T23:14:59.826Z,98400.98
2024-04-22T23:17:28.062Z,98398.45
2024-04-22T23:19:56.190Z,98400.61
2024-04-22T23:22:24.223Z,98403.08
2024-04-22T23:24:52.349Z,98399.41
2024-04-22T23:27:20.961Z,98394.95
2024-04-22T23:29:49.192Z,98390.27
2024-04-22T23:32:17.748Z,98385.50
2024-04-22T23:34:46.025Z,98381.94
2024-04-22T23:37:14.557Z,98380.96
2024-04-22T23:39:42.756Z,98385.97
2024-04-22T23:42:11.150Z,98383.99
2024-04-22T23:44:39.636Z,98376.36
2024-04-22T23:47:07.579Z,98374.11
2024-04-22T23:49:35.984Z,98368.40
2024-04-22T23:52:05.852Z,98368.58
2024-04-22T23:54:33.998Z,98368.54
2024-04-22T23:57:03.728Z,98368.00
2024-04-22T23:59:32.372Z,98366.54
